createdAt,value
2023-03-23T15:57:53.385Z,41.98
2023-03-23T16:00:22.493Z,42.10
2023-03-23T16:02:53.665Z,42.16
2023-03-23T16:05:21.092Z,42.40
2023-03-23T16:07:47.763Z,42.43
2023-03-23T16:10:16.923Z,42.60
2023-03-23T16:12:44.984Z,42.86
2023-03-23T16:15:12.861Z,43.02
2023-03-23T16:17:40.975Z,43.06
2023-03-23T16:20:11.197Z,43.23
2023-03-23T16:22:38.093Z,43.29
2023-03-23T16:25:09.577Z,43.47
2023-03-23T16:27:38.779Z,43.64
2023-03-23T16:30:14.393Z,43.69
2023-03-23T16:32:45.166Z,43.80
2023-03-23T16:35:12.689Z,43.90
2023-03-23T16:37:43.294Z,43.90
2023-03-23T16:40:10.693Z,44.00
2023-03-23T16:42:37.391Z,44.12
2023-03-23T16:45:04.433Z,44.20
2023-03-23T16:47:32.433Z,44.25
2023-03-23T16:50:06.099Z,44.37
2023-03-23T16:52:34.162Z,44.49
2023-03-23T16:55:14.772Z,44.60
2023-03-23T16:57:43.496Z,44.71
2023-03-23T17:00:14.738Z,44.80
2023-03-23T17:02:42.518Z,44.94
2023-03-23T17:05:10.527Z,45.02
2023-03-23T17:07:41.006Z,45.17
2023-03-23T17:10:09.023Z,45.26
2023-03-23T17:12:36.179Z,45.34
2023-03-23T17:15:03.469Z,45.49
2023-03-23T17:17:33.495Z,45.59
2023-03-23T17:20:00.473Z,45.71
2023-03-23T17:22:27.390Z,45.76
2023-03-23T17:24:56.831Z,46.03
2023-03-23T17:27:24.324Z,46.17
2023-03-23T17:29:51.149Z,46.27
2023-03-23T17:32:18.230Z,46.36
2023-03-23T17:34:45.374Z,46.44
2023-03-23T17:37:16.216Z,46.52
2023-03-23T17:39:44.482Z,46.66
2023-03-23T17:42:12.077Z,46.78
2023-03-23T17:44:39.358Z,46.94
2023-03-23T17:47:06.418Z,46.98
2023-03-23T17:49:35.126Z,47.01
2023-03-23T17:52:04.082Z,47.17
2023-03-23T17:54:30.758Z,47.18
2023-03-23T17:57:03.233Z,47.28
2023-03-23T17:59:30.316Z,47.33
2023-03-23T18:01:57.629Z,47.41
2023-03-23T18:04:26.402Z,47.44
2023-03-23T18:06:56.823Z,47.55
2023-03-23T18:09:23.904Z,47.54
2023-03-23T18:11:51.345Z,47.68
2023-03-23T18:14:18.189Z,47.67
2023-03-23T18:16:52.711Z,47.67
2023-03-23T18:19:19.605Z,47.69
2023-03-23T18:21:46.292Z,47.65
2023-03-23T18:24:13.491Z,47.72
2023-03-23T18:26:41.585Z,47.69
2023-03-23T18:29:08.163Z,47.72
2023-03-23T18:31:39.410Z,47.87
2023-03-23T18:34:06.301Z,47.86
2023-03-23T18:36:33.509Z,48.11
2023-03-23T18:39:00.220Z,48.20
2023-03-23T18:41:27.041Z,48.36
2023-03-23T18:43:57.433Z,48.49
2023-03-23T18:46:26.940Z,48.61
2023-03-23T18:48:55.058Z,48.80
2023-03-23T18:51:22.199Z,48.92
2023-03-23T18:53:48.945Z,49.20
2023-03-23T18:56:16.732Z,49.35
2023-03-23T18:58:44.811Z,49.49
2023-03-23T19:01:13.870Z,49.69
2023-03-23T19:03:41.160Z,49.77
2023-03-23T19:06:18.268Z,49.96
2023-03-23T19:08:46.332Z,50.03
2023-03-23T19:11:13.205Z,50.31
2023-03-23T19:13:53.753Z,50.28
2023-03-23T19:16:30.492Z,50.43
2023-03-23T19:19:01.187Z,50.50
2023-03-23T19:21:29.961Z,50.50
2023-03-23T19:23:59.163Z,50.49
2023-03-23T19:26:54.866Z,50.42
2023-03-23T19:31:52.717Z,50.51
2023-03-23T19:34:21.221Z,50.67
2023-03-23T19:36:53.699Z,50.66
2023-03-23T19:39:21.775Z,50.71
2023-03-23T19:41:49.862Z,50.65
2023-03-23T19:44:17.904Z,50.65
2023-03-23T19:46:44.862Z,50.72
2023-03-23T19:49:11.668Z,50.57
2023-03-23T19:51:39.763Z,50.58
2023-03-23T19:54:07.398Z,50.56
2023-03-23T19:56:35.541Z,50.45
2023-03-23T19:59:02.539Z,50.39
2023-03-23T20:01:29.203Z,50.48
2023-03-23T20:04:04.532Z,50.40
2023-03-23T20:06:33.214Z,50.34
2023-03-23T20:09:01.273Z,50.43
2023-03-23T20:11:28.607Z,50.27
2023-03-23T20:13:55.753Z,50.48
2023-03-23T20:16:22.669Z,50.48
2023-03-23T20:18:50.295Z,50.51
2023-03-23T20:21:22.514Z,50.68
2023-03-23T20:23:55.240Z,50.64
2023-03-23T20:26:29.323Z,50.68
2023-03-23T20:28:56.467Z,50.85
2023-03-23T20:31:28.003Z,50.91
2023-03-23T20:34:01.690Z,51.02
2023-03-23T20:36:33.967Z,50.82
2023-03-23T20:39:09.884Z,50.94
2023-03-23T20:41:37.886Z,51.09
2023-03-23T20:44:05.322Z,51.38
2023-03-23T20:46:34.202Z,51.50
2023-03-23T20:49:01.312Z,51.57
2023-03-23T20:51:29.766Z,51.78
2023-03-23T20:53:57.538Z,51.95
2023-03-23T20:56:25.023Z,51.97
2023-03-23T20:58:51.667Z,52.21
2023-03-23T21:01:20.972Z,52.31
2023-03-23T21:03:51.447Z,52.35
2023-03-23T21:06:18.708Z,52.54
2023-03-23T21:08:46.120Z,52.72
2023-03-23T21:11:20.278Z,52.86
2023-03-23T21:13:47.951Z,53.05
2023-03-23T21:16:15.338Z,53.11
2023-03-23T21:18:42.236Z,53.22
2023-03-23T21:21:14.258Z,53.37
2023-03-23T21:23:45.938Z,53.30
2023-03-23T21:26:16.017Z,53.34
2023-03-23T21:28:44.205Z,53.54
2023-03-23T21:31:11.808Z,53.60
2023-03-23T21:33:40.770Z,53.75
2023-03-23T21:36:08.558Z,53.81
2023-03-23T21:38:35.244Z,53.89
2023-03-23T21:41:09.575Z,53.74
2023-03-23T21:43:39.126Z,53.67
2023-03-23T21:46:13.488Z,53.48
2023-03-23T21:48:41.559Z,53.64
2023-03-23T21:51:13.596Z,53.49
2023-03-23T21:53:41.576Z,53.49
2023-03-23T21:56:09.626Z,53.36
2023-03-23T21:58:36.516Z,53.42
2023-03-23T22:01:04.667Z,53.26
2023-03-23T22:03:34.120Z,53.10
2023-03-23T22:06:11.096Z,53.17
2023-03-23T22:08:39.897Z,53.12
2023-03-23T22:11:37.940Z,53.04
2023-03-23T22:14:05.220Z,53.09
2023-03-23T22:16:32.676Z,53.12
2023-03-23T22:19:01.623Z,53.19
2023-03-23T22:21:28.580Z,53.36
2023-03-23T22:23:57.699Z,53.23
2023-03-23T22:26:26.628Z,53.24
2023-03-23T22:28:59.444Z,53.23
2023-03-23T22:31:29.596Z,53.30
2023-03-23T22:33:56.469Z,53.39
2023-03-23T22:36:24.092Z,53.50
2023-03-23T22:38:51.420Z,53.58
2023-03-23T22:41:24.441Z,53.42
2023-03-23T22:43:51.385Z,53.52
2023-03-23T22:46:18.290Z,53.48
2023-03-23T22:48:47.026Z,53.43
2023-03-23T22:51:15.165Z,53.55
2023-03-23T22:53:42.328Z,53.63
2023-03-23T22:56:09.835Z,53.53
2023-03-23T22:58:37.896Z,53.52
2023-03-23T23:01:12.409Z,53.17
2023-03-23T23:03:40.496Z,52.97
2023-03-23T23:06:07.900Z,52.74
2023-03-23T23:08:34.696Z,52.39
2023-03-23T23:11:01.932Z,52.18
2023-03-23T23:13:28.923Z,52.03
2023-03-23T23:15:57.815Z,51.74
2023-03-23T23:18:25.490Z,51.55
2023-03-23T23:20:56.701Z,51.71
2023-03-23T23:23:24.290Z,51.89
2023-03-23T23:25:51.749Z,52.03
2023-03-23T23:28:20.014Z,52.06
2023-03-23T23:30:47.652Z,52.23
2023-03-23T23:33:15.554Z,52.34
2023-03-23T23:35:42.727Z,52.63
2023-03-23T23:38:11.904Z,52.69
2023-03-23T23:40:40.463Z,52.86
2023-03-23T23:43:15.739Z,53.06
2023-03-23T23:45:43.364Z,53.05
2023-03-23T23:48:10.730Z,53.16
2023-03-23T23:50:38.350Z,53.32
2023-03-23T23:53:04.995Z,53.37
2023-03-23T23:55:33.615Z,53.50
2023-03-23T23:58:00.379Z,53.65
